Flight Track Log - Related Links

Times and Time Zones

All times are in EDT time to prevent confusion due to time zone crossing. See the IBE6674 flight status page for this flight to view local times or setup timezone preferences in your user account.

Time Position Orientation Groundspeed Altitude Reporting Facility
EDT Latitude Longitude Course Direction KTS MPH feet Rate Location/Type
Tue 05:45:00 PM 13.6832 -63.2174 50° Northeast  Level Estimated
Tue 05:46:00 PM 13.7704 -63.1083 51° Northeast  Level Estimated
Tue 05:47:00 PM 13.8575 -62.9991 51° Northeast  Level Estimated
Tue 05:48:00 PM 13.9447 -62.8897 51° Northeast  Level Estimated
Tue 05:49:00 PM 14.0317 -62.7803 51° Northeast  Level Estimated
Tue 05:50:00 PM 14.1187 -62.6709 51° Northeast  Level Estimated
Tue 05:51:00 PM 14.2057 -62.5613 51° Northeast  Level Estimated
Tue 05:52:00 PM 14.2926 -62.4517 51° Northeast  Level Estimated
Tue 05:53:00 PM 14.3795 -62.3419 51° Northeast  Level Estimated
Tue 05:54:00 PM 14.4663 -62.2321 51° Northeast  Level Estimated
Tue 05:55:00 PM 14.5531 -62.1222 51° Northeast  Level Estimated
Tue 05:56:00 PM 14.6398 -62.0122 51° Northeast  Level Estimated
Tue 05:57:00 PM 14.7265 -61.9021 51° Northeast  Level Estimated
Tue 05:58:00 PM 14.8131 -61.7920 51° Northeast  Level Estimated
Tue 05:59:00 PM 14.8996 -61.6817 51° Northeast  Level Estimated
Tue 06:00:00 PM 14.9862 -61.5714 51° Northeast  Level Estimated
Tue 06:01:00 PM 15.0726 -61.4610 51° Northeast  Level Estimated
Tue 06:02:00 PM 15.1590 -61.3504 51° Northeast  Level Estimated
Tue 06:03:00 PM 15.2454 -61.2398 51° Northeast  Level Estimated
Tue 06:04:00 PM 15.3316 -61.1291 51° Northeast  Level Estimated
Tue 06:05:00 PM 15.4179 -61.0183 51° Northeast  Level Estimated
Tue 06:06:00 PM 15.5041 -60.9075 51° Northeast  Level Estimated
Tue 06:07:00 PM 15.5902 -60.7965 51° Northeast  Level Estimated
Tue 06:08:00 PM 15.6763 -60.6854 51° Northeast  Level Estimated
Tue 06:09:00 PM 15.7623 -60.5743 51° Northeast  Level Estimated
Tue 06:10:00 PM 15.8483 -60.4630 51° Northeast  Level Estimated
Tue 06:11:00 PM 15.9341 -60.3517 51° Northeast  Level Estimated
Tue 06:12:00 PM 16.0200 -60.2402 51° Northeast  Level Estimated
Tue 06:13:00 PM 16.1058 -60.1287 51° Northeast  Level Estimated
Tue 06:14:00 PM 16.1915 -60.0170 51° Northeast  Level Estimated
Tue 06:15:00 PM 16.2772 -59.9053 51° Northeast  Level Estimated
Tue 06:16:00 PM 16.3628 -59.7934 51° Northeast  Level Estimated
Tue 06:17:00 PM 16.4483 -59.6815 51° Northeast  Level Estimated
Tue 06:18:00 PM 16.5338 -59.5695 51° Northeast  Level Estimated
Tue 06:19:00 PM 16.6193 -59.4574 52° Northeast  Level Estimated
Tue 06:20:00 PM 16.7046 -59.3451 52° Northeast  Level Estimated
Tue 06:21:00 PM 16.7899 -59.2328 52° Northeast  Level Estimated
Tue 06:22:00 PM 16.8752 -59.1204 52° Northeast  Level Estimated
Tue 06:23:00 PM 16.9604 -59.0078 52° Northeast  Level Estimated
Tue 06:24:00 PM 17.0455 -58.8952 52° Northeast  Level Estimated
Tue 06:25:00 PM 17.1306 -58.7825 52° Northeast  Level Estimated
Tue 06:26:00 PM 17.2156 -58.6696 52° Northeast  Level Estimated
Tue 06:27:00 PM 17.3005 -58.5567 52° Northeast  Level Estimated
Tue 06:28:00 PM 17.3841 -58.4454 52° Northeast  Level Estimated
Tue 06:29:00 PM 17.4676 -58.3340 52° Northeast  Level Estimated
Tue 06:30:00 PM 17.5510 -58.2225 52° Northeast  Level Estimated
Tue 06:31:00 PM 17.6344 -58.1110 52° Northeast  Level Estimated
Tue 06:32:00 PM 17.7177 -57.9993 52° Northeast  Level Estimated
Tue 06:33:00 PM 17.8009 -57.8875 52° Northeast  Level Estimated
Tue 06:34:00 PM 17.8841 -57.7756 52° Northeast  Level Estimated
Tue 06:35:00 PM 17.9672 -57.6636 52° Northeast  Level Estimated
Tue 06:36:00 PM 18.0502 -57.5515 52° Northeast  Level Estimated
Tue 06:37:00 PM 18.1332 -57.4393 52° Northeast  Level Estimated
Tue 06:38:00 PM 18.2161 -57.3269 52° Northeast  Level Estimated
Tue 06:39:00 PM 18.2990 -57.2145 52° Northeast  Level Estimated
Tue 06:40:00 PM 18.3818 -57.1020 52° Northeast  Level Estimated
Tue 06:41:00 PM 18.4645 -56.9893 52° Northeast  Level Estimated
Tue 06:42:00 PM 18.5471 -56.8766 52° Northeast  Level Estimated
Tue 06:43:00 PM 18.6297 -56.7637 52° Northeast  Level Estimated
Tue 06:44:00 PM 18.7123 -56.6508 52° Northeast  Level Estimated
Tue 06:45:00 PM 18.7947 -56.5377 52° Northeast  Level Estimated
Tue 06:46:00 PM 18.8771 -56.4245 52° Northeast  Level Estimated
Tue 06:47:00 PM 18.9594 -56.3112 52° Northeast  Level Estimated
Tue 06:48:00 PM 19.0417 -56.1978 52° Northeast  Level Estimated
Tue 06:49:00 PM 19.1238 -56.0843 53° Northeast  Level Estimated
Tue 06:50:00 PM 19.2059 -55.9706 53° Northeast  Level Estimated
Tue 06:51:00 PM 19.2880 -55.8569 53° Northeast  Level Estimated
Tue 06:52:00 PM 19.3699 -55.7430 53° Northeast  Level Estimated
Tue 06:53:00 PM 19.4519 -55.6290 53° Northeast  Level Estimated
Tue 06:54:00 PM 19.5337 -55.5149 53° Northeast  Level Estimated
Tue 06:55:00 PM 19.6154 -55.4007 53° Northeast  Level Estimated
Tue 06:56:00 PM 19.6971 -55.2864 53° Northeast  Level Estimated
Tue 06:57:00 PM 19.7787 -55.1719 53° Northeast  Level Estimated
Tue 06:58:00 PM 19.8603 -55.0574 53° Northeast  Level Estimated
Tue 06:59:00 PM 19.9417 -54.9427 53° Northeast  Level Estimated
Tue 07:00:00 PM 20.0231 -54.8279 53° Northeast  Level Estimated
Tue 07:01:00 PM 20.1044 -54.7130 53° Northeast  Level Estimated
Tue 07:02:00 PM 20.1856 -54.5979 53° Northeast  Level Estimated
Tue 07:03:00 PM 20.2668 -54.4828 53° Northeast  Level Estimated
Tue 07:04:00 PM 20.3479 -54.3675 53° Northeast  Level Estimated
Tue 07:05:00 PM 20.4289 -54.2521 53° Northeast  Level Estimated
Tue 07:06:00 PM 20.5098 -54.1366 53° Northeast  Level Estimated
Tue 07:07:00 PM 20.5907 -54.0209 53° Northeast  Level Estimated
Tue 07:08:00 PM 20.6715 -53.9052 53° Northeast  Level Estimated
Tue 07:09:00 PM 20.7522 -53.7893 53° Northeast  Level Estimated
Tue 07:10:00 PM 20.8328 -53.6733 53° Northeast  Level Estimated
Tue 07:10:29 PM 18.0000 -60.0000 60° Northeast 516 594 37,000  Level New York Oceanic (ODAPS)
Tue 07:11:00 PM 20.9134 -53.5571 53° Northeast  Level Estimated
Tue 07:12:00 PM 20.9939 -53.4409 53° Northeast  Level Estimated
Tue 07:13:00 PM 21.0742 -53.3245 53° Northeast  Level Estimated
Tue 07:14:00 PM 21.1546 -53.2080 54° Northeast  Level Estimated
Tue 07:15:00 PM 21.2348 -53.0914 54° Northeast  Level Estimated
Tue 07:16:00 PM 19.7522 -56.6940 61° Northeast 516 594 37,000  Level FlightAware Transoceanic
Tue 07:17:00 PM 19.8211 -56.5603 61° Northeast 516 594 37,000  Level FlightAware Transoceanic
Tue 07:18:00 PM 19.8898 -56.4264 61° Northeast 516 594 37,000  Level FlightAware Transoceanic
Tue 07:19:00 PM 19.9585 -56.2925 61° Northeast 516 594 37,000  Level FlightAware Transoceanic
Tue 07:20:00 PM 20.0270 -56.1585 61° Northeast 516 594 37,000  Level FlightAware Transoceanic
Tue 07:21:00 PM 20.0955 -56.0243 62° Northeast 516 594 37,000  Level FlightAware Transoceanic
Tue 07:22:00 PM 20.1638 -55.8900 62° Northeast 516 594 37,000  Level FlightAware Transoceanic
Tue 07:23:00 PM 20.2321 -55.7556 62° Northeast 516 594 37,000  Level FlightAware Transoceanic
Tue 07:24:00 PM 20.3002 -55.6211 62° Northeast 516 594 37,000  Level FlightAware Transoceanic
Tue 07:25:00 PM 20.3682 -55.4865 62° Northeast 516 594 37,000  Level FlightAware Transoceanic
Tue 07:26:00 PM 20.4362 -55.3517 62° Northeast 516 594 37,000  Level FlightAware Transoceanic
Tue 07:27:00 PM 20.5040 -55.2168 62° Northeast 516 594 37,000  Level FlightAware Transoceanic
Tue 07:28:00 PM 20.5717 -55.0818 62° Northeast 516 594 37,000  Level FlightAware Transoceanic
Tue 07:29:00 PM 20.6394 -54.9467 62° Northeast 516 594 37,000  Level FlightAware Transoceanic
Tue 07:30:00 PM 20.7069 -54.8115 62° Northeast 516 594 37,000  Level FlightAware Transoceanic
Tue 07:31:00 PM 20.7743 -54.6761 62° Northeast 516 594 37,000  Level FlightAware Transoceanic
Tue 07:32:00 PM 20.8416 -54.5406 62° Northeast 516 594 37,000  Level FlightAware Transoceanic
Tue 07:33:00 PM 20.9088 -54.4050 62° Northeast 516 594 37,000  Level FlightAware Transoceanic
Tue 07:34:00 PM 20.9759 -54.2693 62° Northeast 516 594 37,000  Level FlightAware Transoceanic
Tue 07:35:00 PM 21.0429 -54.1335 62° Northeast 516 594 37,000  Level FlightAware Transoceanic
Tue 07:36:00 PM 21.1097 -53.9975 62° Northeast 516 594 37,000  Level FlightAware Transoceanic
Tue 07:37:00 PM 21.1765 -53.8614 62° Northeast 516 594 37,000  Level FlightAware Transoceanic
Tue 07:38:00 PM 21.2432 -53.7252 62° Northeast 516 594 37,000  Level FlightAware Transoceanic
Tue 07:39:00 PM 21.3097 -53.5889 62° Northeast 516 594 37,000  Level FlightAware Transoceanic
Tue 07:40:00 PM 21.3762 -53.4524 62° Northeast 516 594 37,000  Level FlightAware Transoceanic
Tue 07:41:00 PM 21.4425 -53.3159 62° Northeast 516 594 37,000  Level FlightAware Transoceanic
Tue 07:42:00 PM 21.5087 -53.1792 63° Northeast 516 594 37,000  Level FlightAware Transoceanic
Tue 07:43:00 PM 21.5748 -53.0423 63° Northeast 516 594 37,000  Level FlightAware Transoceanic
Tue 07:44:00 PM 21.6408 -52.9054 63° Northeast 516 594 37,000  Level FlightAware Transoceanic
Tue 07:45:00 PM 21.7067 -52.7683 63° Northeast 516 594 37,000  Level FlightAware Transoceanic
Tue 07:46:00 PM 21.7725 -52.6311 63° Northeast 516 594 37,000  Level FlightAware Transoceanic
Tue 07:47:00 PM 21.8381 -52.4938 63° Northeast 516 594 37,000  Level FlightAware Transoceanic
Tue 07:48:00 PM 21.9037 -52.3563 63° Northeast 516 594 37,000  Level FlightAware Transoceanic
Tue 07:49:00 PM 21.9691 -52.2187 63° Northeast 516 594 37,000  Level FlightAware Transoceanic
Tue 07:50:00 PM 22.0344 -52.0810 63° Northeast 516 594 37,000  Level FlightAware Transoceanic
Tue 07:51:00 PM 22.0996 -51.9432 63° Northeast 516 594 37,000  Level FlightAware Transoceanic
Tue 07:52:00 PM 22.1647 -51.8052 63° Northeast 516 594 37,000  Level FlightAware Transoceanic
Tue 07:53:00 PM 22.2296 -51.6671 63° Northeast 516 594 37,000  Level FlightAware Transoceanic
Tue 07:54:00 PM 22.2945 -51.5289 63° Northeast 516 594 37,000  Level FlightAware Transoceanic
Tue 07:55:00 PM 22.3592 -51.3906 63° Northeast 516 594 37,000  Level FlightAware Transoceanic
Tue 07:56:00 PM 22.4238 -51.2521 63° Northeast 516 594 37,000  Level FlightAware Transoceanic
Tue 07:57:00 PM 22.4883 -51.1135 63° Northeast 516 594 37,000  Level FlightAware Transoceanic
Tue 07:58:00 PM 22.5527 -50.9748 63° Northeast 516 594 37,000  Level FlightAware Transoceanic
Tue 07:59:00 PM 22.6170 -50.8359 63° Northeast 516 594 37,000  Level FlightAware Transoceanic
Tue 08:00:00 PM 22.6811 -50.6969 63° Northeast 516 594 37,000  Level FlightAware Transoceanic
Tue 08:01:00 PM 22.7451 -50.5578 64° Northeast 516 594 37,000  Level FlightAware Transoceanic
Tue 08:02:00 PM 22.8090 -50.4185 64° Northeast 516 594 37,000  Level FlightAware Transoceanic
Tue 08:03:00 PM 22.8728 -50.2792 64° Northeast 516 594 37,000  Level FlightAware Transoceanic
Tue 08:04:00 PM 22.9365 -50.1396 64° Northeast 516 594 37,000  Level FlightAware Transoceanic
Tue 08:05:00 PM 23.0000 -50.0000 64° Northeast 516 594 37,000  Level FlightAware Transoceanic
Tue 08:06:00 PM 23.0591 -49.8674 64° Northeast 516 594 37,000  Level FlightAware Transoceanic
Tue 08:07:00 PM 23.1182 -49.7346 64° Northeast 516 594 37,000 909 Level FlightAware Transoceanic
Tue 08:07:06 PM 23.0000 -50.0000 64° Northeast 488 562 38,000  Climbing New York Oceanic (ODAPS)
Tue 08:08:00 PM 23.1771 -49.6017 64° Northeast 516 594 37,000 -526 Descending FlightAware Transoceanic
Tue 08:09:00 PM 23.2359 -49.4687 64° Northeast 516 594 37,000  Level FlightAware Transoceanic
Tue 08:10:00 PM 23.2946 -49.3356 64° Northeast 516 594 37,000  Level FlightAware Transoceanic
Tue 08:11:00 PM 23.3532 -49.2024 64° Northeast 516 594 37,000  Level FlightAware Transoceanic
Tue 08:12:00 PM 23.4116 -49.0691 64° Northeast 516 594 37,000 500 Level FlightAware Transoceanic
Tue 08:13:00 PM 23.4700 -48.9356 65° Northeast 488 562 38,000 500 Climbing FlightAware Transoceanic
Tue 08:14:00 PM 23.5282 -48.8020 65° Northeast 488 562 38,000  Level FlightAware Transoceanic
Tue 08:14:17 PM 23.5333 -48.7667 65° Northeast 484 557 38,000  Level New York Oceanic (ODAPS)
Tue 08:15:00 PM 23.5864 -48.6683 65° Northeast 488 562 38,000  Level FlightAware Transoceanic
Tue 08:16:00 PM 23.6444 -48.5345 65° Northeast 488 562 38,000  Level FlightAware Transoceanic
Tue 08:17:00 PM 23.7023 -48.4006 65° Northeast 488 562 38,000  Level FlightAware Transoceanic
Tue 08:18:00 PM 23.7601 -48.2665 65° Northeast 488 562 38,000  Level FlightAware Transoceanic
Tue 08:19:00 PM 23.8177 -48.1323 65° Northeast 488 562 38,000  Level FlightAware Transoceanic
Tue 08:20:00 PM 23.8797 -47.9659 65° Northeast 484 557 38,000  Level FlightAware Transoceanic
Tue 08:21:00 PM 23.9371 -47.8320 65° Northeast 484 557 38,000  Level FlightAware Transoceanic
Tue 08:22:00 PM 23.9943 -47.6980 65° Northeast 484 557 38,000  Level FlightAware Transoceanic
Tue 08:23:00 PM 24.0514 -47.5639 65° Northeast 484 557 38,000  Level FlightAware Transoceanic
Tue 08:24:00 PM 24.1084 -47.4297 65° Northeast 484 557 38,000  Level FlightAware Transoceanic
Tue 08:25:00 PM 24.1652 -47.2953 65° Northeast 484 557 38,000  Level FlightAware Transoceanic
Tue 08:26:00 PM 24.2220 -47.1609 65° Northeast 484 557 38,000  Level FlightAware Transoceanic
Tue 08:27:00 PM 24.2786 -47.0263 65° Northeast 484 557 38,000  Level FlightAware Transoceanic
Tue 08:28:00 PM 24.3351 -46.8916 65° Northeast 484 557 38,000  Level FlightAware Transoceanic
Tue 08:29:00 PM 24.3915 -46.7567 65° Northeast 484 557 38,000  Level FlightAware Transoceanic
Tue 08:30:00 PM 24.4478 -46.6218 65° Northeast 484 557 38,000  Level FlightAware Transoceanic
Tue 08:31:00 PM 24.5039 -46.4867 65° Northeast 484 557 38,000  Level FlightAware Transoceanic
Tue 08:32:00 PM 24.5599 -46.3515 66° East 484 557 38,000  Level FlightAware Transoceanic
Tue 08:33:00 PM 24.6159 -46.2162 66° East 484 557 38,000  Level FlightAware Transoceanic
Tue 08:34:00 PM 24.6716 -46.0808 66° East 484 557 38,000  Level FlightAware Transoceanic
Tue 08:34:30 PM 24.7333 -45.9667 66° East 488 562 38,000  Level New York Oceanic (ODAPS)
Tue 08:35:00 PM 24.7273 -45.9452 66° East 484 557 38,000  Level FlightAware Transoceanic
Tue 08:36:00 PM 24.7829 -45.8095 66° East 484 557 38,000  Level FlightAware Transoceanic
Tue 08:37:00 PM 24.8383 -45.6737 66° East 484 557 38,000  Level FlightAware Transoceanic
Tue 08:38:00 PM 24.8936 -45.5378 66° East 484 557 38,000  Level FlightAware Transoceanic
Tue 08:39:00 PM 24.9487 -45.4018 66° East 484 557 38,000  Level FlightAware Transoceanic
Tue 08:40:00 PM 25.0640 -45.1478 66° East 488 562 38,000  Level FlightAware Transoceanic
Tue 08:41:00 PM 25.1187 -45.0109 66° East 488 562 38,000  Level FlightAware Transoceanic
Tue 08:42:00 PM 25.1733 -44.8739 66° East 488 562 38,000  Level FlightAware Transoceanic
Tue 08:43:00 PM 25.2277 -44.7367 66° East 488 562 38,000  Level FlightAware Transoceanic
Tue 08:44:00 PM 25.2820 -44.5994 66° East 488 562 38,000  Level FlightAware Transoceanic
Tue 08:45:00 PM 25.3361 -44.4621 66° East 488 562 38,000  Level FlightAware Transoceanic
Tue 08:46:00 PM 25.3902 -44.3245 67° East 488 562 38,000  Level FlightAware Transoceanic
Tue 08:47:00 PM 25.4441 -44.1869 67° East 488 562 38,000  Level FlightAware Transoceanic
Tue 08:48:00 PM 25.4979 -44.0491 67° East 488 562 38,000  Level FlightAware Transoceanic
Tue 08:49:00 PM 25.5516 -43.9113 67° East 488 562 38,000  Level FlightAware Transoceanic
Tue 08:50:00 PM 25.6051 -43.7732 67° East 488 562 38,000  Level FlightAware Transoceanic
Tue 08:51:00 PM 25.6585 -43.6351 67° East 488 562 38,000  Level FlightAware Transoceanic
Tue 08:52:00 PM 25.7118 -43.4968 67° East 488 562 38,000  Level FlightAware Transoceanic
Tue 08:53:00 PM 25.7649 -43.3585 67° East 488 562 38,000  Level FlightAware Transoceanic
Tue 08:54:00 PM 25.8179 -43.2200 67° East 488 562 38,000  Level FlightAware Transoceanic
Tue 08:54:44 PM 25.8667 -43.1000 67° East 498 573 38,000  Level New York Oceanic (ODAPS)
Tue 08:55:00 PM 25.8708 -43.0813 67° East 488 562 38,000  Level FlightAware Transoceanic
Tue 08:56:00 PM 25.9235 -42.9426 67° East 488 562 38,000  Level FlightAware Transoceanic
Tue 08:57:00 PM 25.9762 -42.8037 67° East 488 562 38,000  Level FlightAware Transoceanic
Tue 08:58:00 PM 26.0286 -42.6647 67° East 488 562 38,000  Level FlightAware Transoceanic
Tue 08:59:00 PM 26.0810 -42.5256 67° East 488 562 38,000  Level FlightAware Transoceanic
Tue 09:00:00 PM 26.1332 -42.3863 67° East 488 562 38,000  Level FlightAware Transoceanic
Tue 09:01:00 PM 26.1973 -42.2205 67° East 498 573 38,000  Level FlightAware Transoceanic
Tue 09:02:00 PM 26.2519 -42.0734 68° East 498 573 38,000  Level FlightAware Transoceanic
Tue 09:03:00 PM 26.3063 -41.9262 68° East 498 573 38,000  Level FlightAware Transoceanic
Tue 09:04:00 PM 26.3606 -41.7789 68° East 498 573 38,000  Level FlightAware Transoceanic
Tue 09:05:00 PM 26.4147 -41.6314 68° East 498 573 38,000  Level FlightAware Transoceanic
Tue 09:06:00 PM 26.4687 -41.4838 68° East 498 573 38,000  Level FlightAware Transoceanic
Tue 09:07:00 PM 26.5225 -41.3360 68° East 498 573 38,000  Level FlightAware Transoceanic
Tue 09:08:00 PM 26.5762 -41.1881 68° East 498 573 38,000  Level FlightAware Transoceanic
Tue 09:09:00 PM 26.6297 -41.0401 68° East 498 573 38,000  Level FlightAware Transoceanic
Tue 09:10:00 PM 26.6831 -40.8919 68° East 498 573 38,000  Level FlightAware Transoceanic
Tue 09:11:00 PM 26.7363 -40.7436 68° East 498 573 38,000  Level FlightAware Transoceanic
Tue 09:12:00 PM 26.7893 -40.5952 68° East 498 573 38,000  Level FlightAware Transoceanic
Tue 09:13:00 PM 26.8422 -40.4466 68° East 498 573 38,000  Level FlightAware Transoceanic
Tue 09:14:00 PM 26.8950 -40.2979 68° East 498 573 38,000  Level FlightAware Transoceanic
Tue 09:15:00 PM 26.9476 -40.1490 68° East 498 573 38,000  Level FlightAware Transoceanic
Tue 09:16:00 PM 27.0000 -40.0000 63° Northeast 498 573 38,000  Level FlightAware Transoceanic
Tue 09:17:00 PM 27.0631 -39.8605 63° Northeast 498 573 38,000  Level FlightAware Transoceanic
Tue 09:18:00 PM 27.1260 -39.7210 63° Northeast 498 573 38,000  Level FlightAware Transoceanic
Tue 09:19:00 PM 27.1888 -39.5812 63° Northeast 498 573 38,000  Level FlightAware Transoceanic
Tue 09:20:00 PM 27.2514 -39.4413 63° Northeast 498 573 38,000  Level FlightAware Transoceanic
Tue 09:21:00 PM 27.3139 -39.3012 63° Northeast 498 573 38,000  Level FlightAware Transoceanic
Tue 09:22:00 PM 27.3763 -39.1610 63° Northeast 498 573 38,000  Level FlightAware Transoceanic
Tue 09:23:00 PM 27.4385 -39.0206 64° Northeast 498 573 38,000  Level FlightAware Transoceanic
Tue 09:24:00 PM 27.5006 -38.8800 64° Northeast 498 573 38,000  Level FlightAware Transoceanic
Tue 09:25:00 PM 27.5625 -38.7393 64° Northeast 498 573 38,000  Level FlightAware Transoceanic
Tue 09:26:00 PM 27.6243 -38.5984 64° Northeast 498 573 38,000  Level FlightAware Transoceanic
Tue 09:27:00 PM 27.6860 -38.4574 64° Northeast 498 573 38,000  Level FlightAware Transoceanic
Tue 09:28:00 PM 27.7475 -38.3162 64° Northeast 498 573 38,000  Level FlightAware Transoceanic
Tue 09:29:00 PM 27.8089 -38.1749 64° Northeast 498 573 38,000  Level FlightAware Transoceanic
Tue 09:30:00 PM 27.8701 -38.0334 64° Northeast 498 573 38,000  Level FlightAware Transoceanic
Tue 09:31:00 PM 27.9312 -37.8917 64° Northeast 498 573 38,000  Level FlightAware Transoceanic
Tue 09:32:00 PM 27.9921 -37.7499 64° Northeast 498 573 38,000  Level FlightAware Transoceanic
Tue 09:33:00 PM 28.0529 -37.6079 64° Northeast 498 573 38,000  Level FlightAware Transoceanic
Tue 09:34:00 PM 28.1136 -37.4658 64° Northeast 498 573 38,000  Level FlightAware Transoceanic
Tue 09:35:00 PM 28.1741 -37.3234 64° Northeast 498 573 38,000  Level FlightAware Transoceanic
Tue 09:36:00 PM 28.2344 -37.1810 64° Northeast 498 573 38,000  Level FlightAware Transoceanic
Tue 09:37:00 PM 28.2946 -37.0384 64° Northeast 498 573 38,000  Level FlightAware Transoceanic
Tue 09:38:00 PM 28.3547 -36.8956 64° Northeast 498 573 38,000  Level FlightAware Transoceanic
Tue 09:39:00 PM 28.4146 -36.7526 65° Northeast 498 573 38,000  Level FlightAware Transoceanic
Tue 09:40:00 PM 28.4744 -36.6095 65° Northeast 498 573 38,000  Level FlightAware Transoceanic
Tue 09:41:00 PM 28.5340 -36.4662 65° Northeast 498 573 38,000  Level FlightAware Transoceanic
Tue 09:42:00 PM 28.5934 -36.3228 65° Northeast 498 573 38,000  Level FlightAware Transoceanic
Tue 09:43:00 PM 28.6528 -36.1792 65° Northeast 498 573 38,000  Level FlightAware Transoceanic
Tue 09:44:00 PM 28.7119 -36.0354 65° Northeast 498 573 38,000  Level FlightAware Transoceanic
Tue 09:45:00 PM 28.7709 -35.8915 65° Northeast 498 573 38,000  Level FlightAware Transoceanic
Tue 09:46:00 PM 28.8298 -35.7474 65° Northeast 498 573 38,000  Level FlightAware Transoceanic
Tue 09:47:00 PM 28.8885 -35.6032 65° Northeast 498 573 38,000  Level FlightAware Transoceanic
Tue 09:48:00 PM 28.9470 -35.4588 65° Northeast 498 573 38,000  Level FlightAware Transoceanic
Tue 09:49:00 PM 29.0054 -35.3142 65° Northeast 498 573 38,000  Level FlightAware Transoceanic
Tue 09:50:00 PM 29.0636 -35.1695 65° Northeast 498 573 38,000  Level FlightAware Transoceanic
Tue 09:51:00 PM 29.1217 -35.0246 65° Northeast 498 573 38,000  Level FlightAware Transoceanic
Tue 09:52:00 PM 29.1796 -34.8795 65° Northeast 498 573 38,000  Level FlightAware Transoceanic
Tue 09:53:00 PM 29.2374 -34.7343 66° East 498 573 38,000  Level FlightAware Transoceanic
Tue 09:54:00 PM 29.2950 -34.5889 66° East 498 573 38,000  Level FlightAware Transoceanic
Tue 09:55:00 PM 29.3525 -34.4433 66° East 498 573 38,000  Level FlightAware Transoceanic
Tue 09:56:00 PM 29.4097 -34.2976 66° East 498 573 38,000  Level FlightAware Transoceanic
Tue 09:57:00 PM 29.4669 -34.1517 66° East 498 573 38,000  Level FlightAware Transoceanic
Tue 09:58:00 PM 29.5239 -34.0057 66° East 498 573 38,000  Level FlightAware Transoceanic
Tue 09:59:00 PM 29.5807 -33.8595 66° East 498 573 38,000  Level FlightAware Transoceanic
Tue 10:00:00 PM 29.6373 -33.7131 66° East 498 573 38,000  Level FlightAware Transoceanic
Tue 10:01:00 PM 29.6938 -33.5665 66° East 498 573 38,000  Level FlightAware Transoceanic
Tue 10:02:00 PM 29.7502 -33.4198 66° East 498 573 38,000  Level FlightAware Transoceanic
Tue 10:03:00 PM 29.8063 -33.2730 66° East 498 573 38,000  Level FlightAware Transoceanic
Tue 10:04:00 PM 29.8623 -33.1259 66° East 498 573 38,000  Level FlightAware Transoceanic
Tue 10:05:00 PM 29.9182 -32.9787 66° East 498 573 38,000  Level FlightAware Transoceanic
Tue 10:06:00 PM 29.9739 -32.8314 66° East 498 573 38,000  Level FlightAware Transoceanic
Tue 10:07:00 PM 30.0294 -32.6838 67° East 498 573 38,000  Level FlightAware Transoceanic
Tue 10:08:00 PM 30.0847 -32.5361 67° East 498 573 38,000  Level FlightAware Transoceanic
Tue 10:09:00 PM 30.1399 -32.3883 67° East 498 573 38,000  Level FlightAware Transoceanic
Tue 10:10:00 PM 30.1950 -32.2402 67° East 498 573 38,000  Level FlightAware Transoceanic
Tue 10:11:00 PM 30.2498 -32.0920 67° East 498 573 38,000  Level FlightAware Transoceanic
Tue 10:12:00 PM 30.3045 -31.9437 67° East 498 573 38,000  Level FlightAware Transoceanic
Tue 10:13:00 PM 30.3590 -31.7952 67° East 498 573 38,000  Level FlightAware Transoceanic
Tue 10:14:00 PM 30.4134 -31.6465 67° East 498 573 38,000  Level FlightAware Transoceanic
Tue 10:15:00 PM 30.4676 -31.4976 67° East 498 573 38,000  Level FlightAware Transoceanic
Tue 10:16:00 PM 30.5216 -31.3486 67° East 498 573 38,000  Level FlightAware Transoceanic
Tue 10:17:00 PM 30.5754 -31.1994 67° East 498 573 38,000  Level FlightAware Transoceanic
Tue 10:18:00 PM 30.6291 -31.0501 67° East 498 573 38,000  Level FlightAware Transoceanic
Tue 10:19:00 PM 30.6826 -30.9006 67° East 498 573 38,000  Level FlightAware Transoceanic
Tue 10:20:00 PM 30.7359 -30.7509 68° East 498 573 38,000  Level FlightAware Transoceanic
Tue 10:21:00 PM 30.7891 -30.6010 68° East 498 573 38,000  Level FlightAware Transoceanic
Tue 10:22:00 PM 30.8421 -30.4510 68° East 498 573 38,000  Level FlightAware Transoceanic
Tue 10:23:00 PM 30.8949 -30.3008 68° East 498 573 38,000  Level FlightAware Transoceanic
Tue 10:24:00 PM 30.9475 -30.1505 68° East 498 573 38,000 Level FlightAware Transoceanic
Tue 10:25:00 PM 30.9984 -30.0045 68° East  Level FlightAware Approximate
Tue 10:26:00 PM 31.0493 -29.8584 68° East  Level FlightAware Approximate
Tue 10:27:00 PM 31.0472 -29.8626 68° East  Level FlightAware Approximate
Tue 10:28:00 PM 31.0974 -29.7161 68° East  Level FlightAware Approximate
Tue 10:29:00 PM 31.1473 -29.5695 68° East  Level FlightAware Approximate
Tue 10:30:00 PM 31.1971 -29.4226 68° East  Level FlightAware Approximate
Tue 10:31:00 PM 31.2468 -29.2756 68° East  Level FlightAware Approximate
Tue 10:32:00 PM 31.2963 -29.1285 68° East  Level FlightAware Approximate
Tue 10:33:00 PM 31.3456 -28.9812 69° East  Level FlightAware Approximate
Tue 10:34:00 PM 31.3947 -28.8338 69° East  Level FlightAware Approximate
Tue 10:35:00 PM 31.4437 -28.6862 69° East  Level FlightAware Approximate
Tue 10:36:00 PM 31.4925 -28.5384 69° East  Level FlightAware Approximate
Tue 10:37:00 PM 31.5411 -28.3905 69° East  Level FlightAware Approximate
Tue 10:38:00 PM 31.5896 -28.2425 69° East  Level FlightAware Approximate
Tue 10:39:00 PM 31.6379 -28.0942 69° East  Level FlightAware Approximate
Tue 10:40:00 PM 31.6860 -27.9459 69° East  Level FlightAware Approximate
Tue 10:41:00 PM 31.7340 -27.7974 69° East  Level FlightAware Approximate
Tue 10:42:00 PM 31.7817 -27.6487 69° East  Level FlightAware Approximate
Tue 10:43:00 PM 31.8294 -27.4999 69° East  Level FlightAware Approximate
Tue 10:44:00 PM 31.8768 -27.3509 69° East  Level FlightAware Approximate
Tue 10:45:00 PM 31.9240 -27.2017 69° East  Level FlightAware Approximate
Tue 10:46:00 PM 31.9712 -27.0525 69° East  Level FlightAware Approximate
Tue 10:47:00 PM 32.0190 -26.9035 69° East  Level FlightAware Approximate
Tue 10:48:00 PM 32.0667 -26.7542 69° East  Level FlightAware Approximate
Tue 10:49:00 PM 32.1141 -26.6049 69° East  Level FlightAware Approximate
Tue 10:50:00 PM 32.1614 -26.4554 69° East  Level FlightAware Approximate
Tue 10:51:00 PM 32.2085 -26.3057 70° East  Level FlightAware Approximate
Tue 10:52:00 PM 32.2555 -26.1559 70° East  Level FlightAware Approximate
Tue 10:53:00 PM 32.3023 -26.0060 70° East  Level FlightAware Approximate
Tue 10:54:00 PM 32.3491 -25.8559 70° East  Level FlightAware Approximate
Tue 10:55:00 PM 32.3956 -25.7057 70° East  Level FlightAware Approximate
Tue 10:56:00 PM 32.4421 -25.5553 70° East  Level FlightAware Approximate
Tue 10:57:00 PM 32.4883 -25.4048 70° East  Level FlightAware Approximate
Tue 10:58:00 PM 32.5343 -25.2542 70° East  Level FlightAware Approximate
Tue 10:59:00 PM 32.5802 -25.1033 70° East  Level FlightAware Approximate
Tue 11:00:00 PM 32.6259 -24.9524 70° East  Level FlightAware Approximate
Tue 11:01:00 PM 32.6713 -24.8012 70° East  Level FlightAware Approximate
Tue 11:02:00 PM 32.7167 -24.6500 70° East  Level FlightAware Approximate
Tue 11:03:00 PM 32.7618 -24.4985 70° East  Level FlightAware Approximate
Tue 11:04:00 PM 32.8068 -24.3469 71° East  Level FlightAware Approximate
Tue 11:05:00 PM 32.8516 -24.1952 71° East  Level FlightAware Approximate
Tue 11:06:00 PM 32.8961 -24.0433 71° East  Level FlightAware Approximate
Tue 11:06:12 PM 33.1010 -23.3050 71° East 532 612 38,100  Level FlightAware ADS-B
Tue 11:06:57 PM 33.1330 -23.1910 71° East 530 610 38,100  Level FlightAware ADS-B
Tue 11:07:00 PM 32.9406 -23.8912 71° East  Level FlightAware Approximate
Tue 11:07:47 PM 33.1670 -23.0740 71° East 530 610 38,100  Level FlightAware ADS-B
Tue 11:08:27 PM 33.1940 -22.9800 71° East 530 610 38,100  Level FlightAware ADS-B
Tue 11:09:07 PM 33.2210 -22.8850 71° East 530 610 38,100  Level FlightAware ADS-B
Tue 11:09:47 PM 33.2480 -22.7910 71° East 530 610 38,100  Level FlightAware ADS-B
Tue 11:10:27 PM 33.2760 -22.6970 70° East 530 610 38,100  Level FlightAware ADS-B
Tue 11:11:07 PM 33.3030 -22.6030 71° East 530 610 38,100  Level FlightAware ADS-B
Tue 11:11:57 PM 33.3370 -22.4850 71° East 530 610 38,100  Level FlightAware ADS-B
Tue 11:12:37 PM 33.3640 -22.3900 71° East 530 610 38,100  Level FlightAware ADS-B
Tue 11:13:17 PM 33.3910 -22.2960 71° East 530 610 38,100  Level FlightAware ADS-B
Tue 11:13:57 PM 33.4180 -22.2010 71° East 530 610 38,100  Level FlightAware ADS-B
Tue 11:14:37 PM 33.4450 -22.1070 71° East 530 610 38,100  Level FlightAware ADS-B
Tue 11:15:27 PM 33.4790 -21.9890 71° East 530 610 38,100  Level FlightAware ADS-B
Tue 11:16:07 PM 33.5060 -21.8940 71° East 530 610 38,100  Level FlightAware ADS-B
Tue 11:18:00 PM 33.5841 -21.6033 72° East  Level FlightAware Approximate
Tue 11:19:00 PM 33.6252 -21.4488 72° East  Level FlightAware Approximate
Tue 11:20:00 PM 33.6662 -21.2941 72° East  Level FlightAware Approximate
Tue 11:21:00 PM 33.7070 -21.1393 72° East  Level FlightAware Approximate
Tue 11:22:00 PM 33.7476 -20.9843 72° East  Level FlightAware Approximate
Tue 11:23:00 PM 33.7880 -20.8291 73° East  Level FlightAware Approximate
Tue 11:24:00 PM 33.8282 -20.6739 73° East  Level FlightAware Approximate
Tue 11:25:00 PM 33.8682 -20.5184 73° East  Level FlightAware Approximate
Tue 11:26:00 PM 33.9080 -20.3629 73° East  Level FlightAware Approximate
Tue 11:27:00 PM 33.9477 -20.2071 73° East  Level FlightAware Approximate
Tue 11:28:00 PM 33.9871 -20.0513 73° East  Level FlightAware Approximate
Tue 11:29:00 PM 34.0414 -19.9026 63° Northeast  Level FlightAware Approximate
Tue 11:30:00 PM 34.1029 -19.7574 63° Northeast  Level FlightAware Approximate
Tue 11:31:00 PM 34.1643 -19.6119 63° Northeast  Level FlightAware Approximate
Tue 11:32:00 PM 34.2254 -19.4662 63° Northeast  Level FlightAware Approximate
Tue 11:33:00 PM 34.2864 -19.3203 63° Northeast  Level FlightAware Approximate
Tue 11:34:00 PM 34.3473 -19.1742 63° Northeast  Level FlightAware Approximate
Tue 11:35:00 PM 34.4079 -19.0279 63° Northeast  Level FlightAware Approximate
Tue 11:36:00 PM 34.4684 -18.8813 63° Northeast  Level FlightAware Approximate
Tue 11:37:00 PM 34.5287 -18.7346 63° Northeast  Level FlightAware Approximate
Tue 11:38:00 PM 34.5889 -18.5876 64° Northeast  Level FlightAware Approximate
Tue 11:39:00 PM 34.6488 -18.4405 64° Northeast  Level FlightAware Approximate
Tue 11:40:00 PM 34.7086 -18.2931 64° Northeast  Level FlightAware Approximate
Tue 11:41:00 PM 34.7682 -18.1455 64° Northeast  Level FlightAware Approximate
Tue 11:42:00 PM 34.8276 -17.9977 64° Northeast  Level FlightAware Approximate
Tue 11:43:00 PM 34.8869 -17.8496 64° Northeast  Level FlightAware Approximate
Tue 11:44:00 PM 34.9459 -17.7014 64° Northeast  Level FlightAware Approximate
Tue 11:45:00 PM 35.0048 -17.5529 64° Northeast  Level FlightAware Approximate
Tue 11:46:00 PM 35.0635 -17.4043 64° Northeast  Level FlightAware Approximate
Tue 11:47:00 PM 35.1220 -17.2554 64° Northeast  Level FlightAware Approximate
Tue 11:48:00 PM 35.1804 -17.1063 64° Northeast  Level FlightAware Approximate
Tue 11:49:00 PM 35.2385 -16.9570 64° Northeast  Level FlightAware Approximate
Tue 11:50:00 PM 35.2965 -16.8075 65° Northeast  Level FlightAware Approximate
Tue 11:51:00 PM 35.3543 -16.6578 65° Northeast  Level FlightAware Approximate
Tue 11:52:00 PM 35.4119 -16.5078 65° Northeast  Level FlightAware Approximate
Tue 11:53:00 PM 35.4693 -16.3577 65° Northeast  Level FlightAware Approximate
Tue 11:54:00 PM 35.5284 -16.2085 60° Northeast  Level FlightAware Approximate
Tue 11:55:00 PM 35.5962 -16.0648 60° Northeast  Level FlightAware Approximate
Tue 11:56:00 PM 35.6639 -15.9208 60° Northeast  Level FlightAware Approximate
Tue 11:57:00 PM 35.7313 -15.7766 60° Northeast  Level FlightAware Approximate
Tue 11:58:00 PM 35.7986 -15.6322 60° Northeast  Level FlightAware Approximate
Tue 11:59:00 PM 35.8657 -15.4875 60° Northeast  Level FlightAware Approximate
Wed 12:00:00 AM 35.9327 -15.3426 60° Northeast  Level FlightAware Approximate
Wed 12:01:00 AM 35.9995 -15.1974 60° Northeast  Level FlightAware Approximate
Wed 12:02:00 AM 36.0661 -15.0520 60° Northeast  Level FlightAware Approximate
Wed 12:03:00 AM 36.1325 -14.9064 61° Northeast  Level FlightAware Approximate
Wed 12:04:00 AM 36.1987 -14.7605 61° Northeast  Level FlightAware Approximate
Wed 12:05:00 AM 36.2648 -14.6143 61° Northeast  Level FlightAware Approximate
Wed 12:06:00 AM 36.3307 -14.4679 61° Northeast  Level FlightAware Approximate
Wed 12:07:00 AM 36.3964 -14.3212 61° Northeast  Level FlightAware Approximate
Wed 12:08:00 AM 36.4619 -14.1743 61° Northeast  Level FlightAware Approximate
Wed 12:09:00 AM 36.5273 -14.0272 61° Northeast  Level FlightAware Approximate
Wed 12:10:00 AM 36.5924 -13.8798 61° Northeast  Level FlightAware Approximate
Wed 12:11:00 AM 36.6574 -13.7322 61° Northeast  Level FlightAware Approximate
Wed 12:12:00 AM 36.7222 -13.5843 61° Northeast  Level FlightAware Approximate
Wed 12:13:00 AM 36.7868 -13.4361 61° Northeast  Level FlightAware Approximate
Wed 12:14:00 AM 36.8513 -13.2878 61° Northeast  Level FlightAware Approximate
Wed 12:15:00 AM 36.9155 -13.1391 62° Northeast  Level FlightAware Approximate
Wed 12:16:00 AM 36.9796 -12.9902 62° Northeast  Level FlightAware Approximate
Wed 12:17:00 AM 37.0435 -12.8411 62° Northeast  Level FlightAware Approximate
Wed 12:18:00 AM 37.1072 -12.6917 62° Northeast  Level FlightAware Approximate
Wed 12:19:00 AM 37.1707 -12.5421 62° Northeast  Level FlightAware Approximate
Wed 12:20:00 AM 37.2340 -12.3921 62° Northeast  Level FlightAware Approximate
Wed 12:21:00 AM 37.2971 -12.2420 62° Northeast  Level FlightAware Approximate
Wed 12:22:00 AM 37.3601 -12.0916 62° Northeast  Level FlightAware Approximate
Wed 12:23:00 AM 37.4228 -11.9410 62° Northeast  Level FlightAware Approximate
Wed 12:24:00 AM 37.4854 -11.7900 62° Northeast  Level FlightAware Approximate
Wed 12:25:00 AM 37.5477 -11.6389 62° Northeast  Level FlightAware Approximate
Wed 12:26:00 AM 37.6100 -11.4875 63° Northeast  Level FlightAware Approximate
Wed 12:27:00 AM 37.6720 -11.3359 63° Northeast  Level FlightAware Approximate
Wed 12:28:00 AM 37.7339 -11.1841 63° Northeast  Level FlightAware Approximate
Wed 12:29:00 AM 37.7956 -11.0319 63° Northeast  Level FlightAware Approximate
Wed 12:30:00 AM 37.8570 -10.8796 63° Northeast  Level FlightAware Approximate
Wed 12:30:27 AM 38.1240 -10.6070 63° Northeast 461 531 38,100  Level FlightAware ADS-B
Wed 12:31:00 AM 37.9183 -10.7270 63° Northeast  Level FlightAware Approximate
Wed 12:31:07 AM 38.1640 -10.5120 62° Northeast 464 534 38,100  Level FlightAware ADS-B
Wed 12:32:17 AM 38.2280 -10.3630 61° Northeast 465 535 38,100  Level FlightAware ADS-B
Wed 12:32:57 AM 38.2640 -10.2810 61° Northeast 465 535 38,100  Level FlightAware ADS-B
Wed 12:33:37 AM 38.2990 -10.2000 61° Northeast 465 535 38,100  Level FlightAware ADS-B
Wed 12:34:17 AM 38.3350 -10.1180 61° Northeast 465 535 38,100  Level FlightAware ADS-B
Wed 12:34:57 AM 38.3700 -10.0370 61° Northeast 465 535 38,100  Level FlightAware ADS-B
Wed 12:36:12 AM 38.4690 -9.7880 63° Northeast 461 531 38,100  Level FlightAware ADS-B
Wed 12:36:47 AM 38.5070 -9.6950 62° Northeast 461 531 38,100  Level FlightAware ADS-B
Wed 12:37:37 AM 38.5540 -9.5830 62° Northeast 460 529 38,100  Level FlightAware ADS-B
Wed 12:38:17 AM 38.5930 -9.4870 63° Northeast 465 535 38,100  Level FlightAware ADS-B
Wed 12:39:12 AM 38.6510 -9.3450 62° Northeast 465 535 38,100  Level FlightAware ADS-B
Wed 12:39:57 AM 38.6930 -9.2430 62° Northeast 462 532 38,100  Level FlightAware ADS-B
Wed 12:40:32 AM 38.7300 -9.1540 62° Northeast 463 533 38,100  Level FlightAware ADS-B
Wed 12:41:12 AM 38.7710 -9.0530 62° Northeast 462 532 38,100  Level FlightAware ADS-B
Wed 12:42:02 AM 38.8220 -8.9250 63° Northeast 462 532 38,100  Level FlightAware ADS-B
Wed 12:42:42 AM 38.8610 -8.8280 63° Northeast 459 528 38,100  Level FlightAware ADS-B
Wed 12:43:27 AM 38.9060 -8.7160 63° Northeast 456 525 38,100  Level FlightAware ADS-B
Wed 12:44:07 AM 38.9450 -8.6200 62° Northeast 451 519 38,100  Level FlightAware ADS-B
Wed 12:45:17 AM 39.0120 -8.4520 63° Northeast 452 520 38,100  Level FlightAware ADS-B
Wed 12:47:00 AM 39.1026 -8.1770 67° East  Level Estimated
Wed 12:47:07 AM 39.1140 -8.1960 67° East 447 514 38,100  Level FlightAware ADS-B
Wed 12:48:32 AM 39.1940 -7.9930 63° Northeast 445 512 38,100  Level FlightAware ADS-B
Wed 12:49:12 AM 39.2320 -7.8950 63° Northeast 445 512 38,100  Level FlightAware ADS-B
Wed 12:49:57 AM 39.2750 -7.7850 63° Northeast 445 512 38,100  Level FlightAware ADS-B
Wed 12:50:37 AM 39.3120 -7.6900 63° Northeast 445 512 38,100  Level FlightAware ADS-B
Wed 12:51:22 AM 39.3540 -7.5810 63° Northeast 449 517 38,100  Level FlightAware ADS-B
Wed 12:52:02 AM 39.3910 -7.4860 63° Northeast 446 513 38,100  Level FlightAware ADS-B
Wed 12:52:42 AM 39.4270 -7.3910 64° Northeast 443 510 38,100  Level FlightAware ADS-B
Wed 12:53:27 AM 39.4700 -7.2790 64° Northeast 446 513 38,100  Level FlightAware ADS-B
Wed 12:54:07 AM 39.5050 -7.1880 63° Northeast 444 511 38,100  Level FlightAware ADS-B
Wed 12:54:52 AM 39.5460 -7.0800 64° Northeast 444 511 38,100  Level FlightAware ADS-B
Wed 12:55:32 AM 39.5830 -6.9830 64° Northeast 445 512 38,100  Level FlightAware ADS-B
Wed 12:56:12 AM 39.6200 -6.8860 64° Northeast 446 513 38,100  Level FlightAware ADS-B
Wed 12:56:57 AM 39.6610 -6.7760 64° Northeast 445 512 38,100  Level FlightAware ADS-B
Wed 12:57:37 AM 39.6960 -6.6830 64° Northeast 444 511 38,100  Level FlightAware ADS-B
Wed 12:58:22 AM 39.7370 -6.5730 64° Northeast 442 509 38,100  Level FlightAware ADS-B
Wed 12:59:02 AM 39.7720 -6.4790 64° Northeast 441 507 38,100  Level FlightAware ADS-B
Wed 12:59:42 AM 39.7980 -6.3790 71° East 442 509 38,100  Level FlightAware ADS-B
Wed 01:00:27 AM 39.8140 -6.2590 80° East 443 510 38,100  Level FlightAware ADS-B
Wed 01:01:07 AM 39.8230 -6.1550 84° East 443 510 38,100 -1,284 Level FlightAware ADS-B
Wed 01:03:00 AM 39.9078 -5.8423 70° East  Level Estimated
Wed 01:04:00 AM 39.9525 -5.6760 71° East  Level Estimated
Wed 01:05:00 AM 39.9969 -5.5095 71° East  Level Estimated
Wed 01:06:00 AM 40.0411 -5.3427 71° East  Level Estimated
Wed 01:07:00 AM 40.0851 -5.1757 71° East  Level Estimated
Wed 01:08:00 AM 40.1288 -5.0085 71° East  Level Estimated
Wed 01:09:00 AM 40.1723 -4.8411 71° East  Level Estimated
Wed 01:10:00 AM 40.2155 -4.6735 71° East  Level Estimated
Wed 01:11:00 AM 40.2585 -4.5057 71° East  Level Estimated
Wed 01:12:00 AM 40.3012 -4.3376 72° East  Level Estimated
Wed 01:12:22 AM 39.9500 -4.4360 72° East 387 445 22,800  Level FlightAware ADS-B
Wed 01:13:02 AM 39.9350 -4.3470 102° East 384 442 21,500 -1,875 Descending FlightAware ADS-B
Wed 01:13:42 AM 39.9080 -4.2610 112° Southeast 378 435 20,300 -1,835 Descending FlightAware ADS-B
Wed 01:14:27 AM 39.8680 -4.1790 122° Southeast 377 434 18,900 -2,118 Descending FlightAware ADS-B
Wed 01:15:07 AM 39.8240 -4.1070 128° Southeast 378 435 17,300 -2,325 Descending FlightAware ADS-B
Wed 01:15:47 AM 39.7810 -4.0340 127° Southeast 372 428 15,800 -2,400 Descending FlightAware ADS-B
Wed 01:16:02 AM 39.7740 -3.9990 105° East 363 418 15,100 -2,000 Descending FlightAware ADS-B
Wed 01:16:32 AM 39.7890 -3.9410 71° East 337 388 14,300 -1,600 Descending FlightAware ADS-B
Wed 01:16:47 AM 39.8050 -3.9220 42° Northeast 332 382 13,900 -1,855 Descending FlightAware ADS-B
Wed 01:17:27 AM 39.8530 -3.8780 35° Northeast 331 381 12,600 -2,025 Descending FlightAware ADS-B
Wed 01:18:07 AM 39.8980 -3.8240 43° Northeast 330 380 11,200 -1,835 Descending FlightAware ADS-B
Wed 01:18:52 AM 39.9480 -3.7580 45° Northeast 323 372 10,000 -1,286 Descending FlightAware ADS-B
Wed 01:19:17 AM 39.9730 -3.7250 45° Northeast 304 350 9,700 -600 Descending FlightAware ADS-B
Wed 01:19:32 AM 39.9880 -3.7040 47° Northeast 294 338 9,600 -800 Descending FlightAware ADS-B
Wed 01:20:02 AM 40.0160 -3.6670 45° Northeast 282 325 9,100 -982 Descending FlightAware ADS-B
Wed 01:20:27 AM 40.0370 -3.6380 47° Northeast 275 316 8,700 -1,091 Descending FlightAware ADS-B
Wed 01:20:57 AM 40.0630 -3.6030 46° Northeast 268 308 8,100 -1,467 Descending FlightAware ADS-B
Wed 01:21:12 AM 40.0770 -3.5840 46° Northeast 268 308 7,600 -1,650 Descending FlightAware ADS-B
Wed 01:21:37 AM 40.0980 -3.5560 46° Northeast 271 312 7,000 -1,636 Descending FlightAware ADS-B
Wed 01:22:07 AM 40.1250 -3.5210 45° Northeast 277 319 6,100 -1,500 Descending FlightAware ADS-B
Wed 01:22:37 AM 40.1510 -3.4850 47° Northeast 275 316 5,500 -1,091 Descending FlightAware ADS-B
Wed 01:23:02 AM 40.1740 -3.4540 46° Northeast 264 304 5,100 -655 Descending FlightAware ADS-B
Wed 01:23:32 AM 40.1990 -3.4210 45° Northeast 246 283 4,900 -327 Descending FlightAware ADS-B
Wed 01:23:57 AM 40.2170 -3.3970 46° Northeast 236 272 4,800 -109 Descending FlightAware ADS-B
Wed 01:24:27 AM 40.2400 -3.3660 46° Northeast 238 274 4,800 -133 Level FlightAware ADS-B
Wed 01:24:42 AM 40.2560 -3.3570 23° Northeast 229 264 4,700 -109 Descending FlightAware ADS-B
Wed 01:25:22 AM 40.2910 -3.3800 333° Northwest 220 253 4,700  Level FlightAware ADS-B
Wed 01:25:52 AM 40.3150 -3.4040 323° Northwest 216 249 4,700  Level FlightAware ADS-B
Wed 01:26:17 AM 40.3340 -3.4230 323° Northwest 204 235 4,700 -436 Level FlightAware ADS-B
Wed 01:26:47 AM 40.3560 -3.4450 323° Northwest 208 239 4,300 -982 Descending FlightAware ADS-B
Wed 01:27:12 AM 40.3750 -3.4650 321° Northwest 205 236 3,800 -1,091 Descending FlightAware ADS-B
Wed 01:27:42 AM 40.3970 -3.4870 323° Northwest 196 226 3,300 -1,000 Descending FlightAware ADS-B
Wed 01:28:12 AM 40.4180 -3.5080 323° Northwest 178 205 2,800 -982 Descending FlightAware ADS-B
Wed 01:28:37 AM 40.4330 -3.5230 323° Northwest 162 186 2,400 -900 Descending FlightAware ADS-B
Wed 01:28:52 AM 40.4420 -3.5330 320° Northwest 154 177 2,200 -800 Descending FlightAware ADS-B
Wed 01:29:22 AM 40.4590 -3.5500 323° Northwest 152 175 1,800 -800 Descending FlightAware ADS-B

Login

Don't have an account? Register now (free) for customized features, flight alerts, and more!